Time;durP1;ratioP1;P1;durP2;ratioP2;P2;SDS_P1;SDS_P2;PMS_P1;PMS_P2;Temp;Humidity;BMP_temperature;BMP_pressure;BME280_temperature;BME280_humidity;BME280_pressure;Samples;Min_cycle;Max_cycle;Signal;HPM_P1;HPM_P2
2023/12/06 00:02:04;;;;;;;23.15;6.78;;;;;;;;;;5052953;28;20114;-66
2023/12/06 00:04:30;;;;;;;18.95;6.22;;;;;;;;;;5051847;28;20120;-66
2023/12/06 00:06:56;;;;;;;12.63;4.75;;;;;;;;;;5051970;28;20029;-67
2023/12/06 00:09:21;;;;;;;24.92;6.35;;;;;;;;;;5053114;28;20041;-66
2023/12/06 00:11:46;;;;;;;13.40;5.38;;;;;;;;;;5050769;28;20029;-67
2023/12/06 00:14:12;;;;;;;13.05;5.57;;;;;;;;;;5052585;28;20041;-66
2023/12/06 00:16:40;;;;;;;18.20;6.22;;;;;;;;;;5052963;28;20055;-65
2023/12/06 00:19:06;;;;;;;15.80;5.25;;;;;;;;;;5052260;28;20028;-66
2023/12/06 00:21:31;;;;;;;12.05;5.00;;;;;;;;;;5052734;28;20036;-65
2023/12/06 00:23:57;;;;;;;13.32;5.28;;;;;;;;;;5052681;28;20068;-66
2023/12/06 00:26:22;;;;;;;7.55;3.85;;;;;;;;;;5052401;28;20033;-66
2023/12/06 00:28:47;;;;;;;16.17;4.78;;;;;;;;;;5052592;28;20623;-66
2023/12/06 00:31:13;;;;;;;14.18;5.13;;;;;;;;;;5052307;28;20112;-66
2023/12/06 00:33:38;;;;;;;12.85;4.60;;;;;;;;;;5052357;28;20116;-67
2023/12/06 00:36:04;;;;;;;12.38;4.97;;;;;;;;;;5052547;28;20117;-66
2023/12/06 00:38:31;;;;;;;18.15;4.57;;;;;;;;;;5052496;28;20424;-67
2023/12/06 00:40:56;;;;;;;12.88;4.85;;;;;;;;;;5051403;28;20399;-67
2023/12/06 00:43:22;;;;;;;12.48;4.45;;;;;;;;;;5052614;28;20139;-66
2023/12/06 00:45:47;;;;;;;13.90;4.20;;;;;;;;;;5052173;28;20519;-66
2023/12/06 00:48:13;;;;;;;15.45;4.57;;;;;;;;;;5051853;28;20028;-66
2023/12/06 00:50:38;;;;;;;7.28;4.03;;;;;;;;;;5052167;28;20029;-67
2023/12/06 00:53:03;;;;;;;13.65;4.28;;;;;;;;;;5052068;28;20044;-66
2023/12/06 00:55:29;;;;;;;9.43;3.95;;;;;;;;;;5052253;28;20469;-66
2023/12/06 00:57:54;;;;;;;19.40;4.60;;;;;;;;;;5052037;28;20032;-66
2023/12/06 01:00:19;;;;;;;27.40;4.88;;;;;;;;;;5051875;28;20493;-66
2023/12/06 01:02:45;;;;;;;103.88;7.15;;;;;;;;;;5051886;28;20456;-66
2023/12/06 01:05:10;;;;;;;20.55;5.43;;;;;;;;;;5052019;28;20403;-66
2023/12/06 01:07:35;;;;;;;20.40;5.03;;;;;;;;;;5051667;28;20099;-67
2023/12/06 01:10:02;;;;;;;15.70;4.63;;;;;;;;;;5051556;28;20032;-66
2023/12/06 01:12:27;;;;;;;11.35;4.28;;;;;;;;;;5050198;28;20039;-66
2023/12/06 01:14:52;;;;;;;11.00;4.10;;;;;;;;;;5051767;28;20045;-66
2023/12/06 01:17:18;;;;;;;17.50;4.38;;;;;;;;;;5051400;28;20083;-65
2023/12/06 01:19:43;;;;;;;14.05;3.55;;;;;;;;;;5050594;28;20037;-65
2023/12/06 01:22:08;;;;;;;8.38;3.10;;;;;;;;;;5051413;28;20148;-66
2023/12/06 01:24:34;;;;;;;14.52;4.35;;;;;;;;;;5051278;28;20070;-66
2023/12/06 01:26:59;;;;;;;13.82;3.60;;;;;;;;;;5051464;28;20078;-67
2023/12/06 01:29:24;;;;;;;58.42;5.20;;;;;;;;;;5051462;28;20045;-66
2023/12/06 01:31:50;;;;;;;37.13;4.50;;;;;;;;;;5051123;28;20053;-66
2023/12/06 01:34:15;;;;;;;14.25;3.90;;;;;;;;;;5051304;28;20035;-66
2023/12/06 01:36:41;;;;;;;11.80;4.63;;;;;;;;;;5049360;28;20048;-66
2023/12/06 01:39:07;;;;;;;9.80;4.07;;;;;;;;;;5050826;28;20048;-66
2023/12/06 01:41:32;;;;;;;12.00;3.28;;;;;;;;;;5050922;28;20397;-66
2023/12/06 01:43:57;;;;;;;8.27;3.72;;;;;;;;;;5051127;28;20097;-67
2023/12/06 01:46:23;;;;;;;11.55;3.85;;;;;;;;;;5050677;28;20037;-66
2023/12/06 01:48:48;;;;;;;9.68;3.45;;;;;;;;;;5051057;28;20029;-66
2023/12/06 01:51:16;;;;;;;13.55;3.78;;;;;;;;;;5050183;28;20041;-66
2023/12/06 01:53:42;;;;;;;13.93;3.60;;;;;;;;;;5048575;28;20033;-67
2023/12/06 01:56:08;;;;;;;8.75;3.58;;;;;;;;;;5050960;28;20025;-66
2023/12/06 01:58:38;;;;;;;37.00;4.93;;;;;;;;;;5051086;28;20045;-66
2023/12/06 02:01:05;;;;;;;37.97;4.57;;;;;;;;;;5049401;28;20020;-66
2023/12/06 02:03:31;;;;;;;23.05;4.55;;;;;;;;;;5049523;28;20521;-66
2023/12/06 02:05:56;;;;;;;71.55;6.47;;;;;;;;;;5050175;28;20503;-66
2023/12/06 02:08:22;;;;;;;10.35;4.00;;;;;;;;;;5050522;28;20025;-65
2023/12/06 02:10:48;;;;;;;11.88;3.67;;;;;;;;;;5050596;28;20376;-66
2023/12/06 02:13:13;;;;;;;8.70;3.70;;;;;;;;;;5050564;28;20041;-66
2023/12/06 02:15:39;;;;;;;11.75;4.57;;;;;;;;;;5049348;28;20039;-66
2023/12/06 02:18:04;;;;;;;22.45;5.03;;;;;;;;;;5050158;28;20029;-66
2023/12/06 02:20:30;;;;;;;7.93;3.40;;;;;;;;;;5049484;28;20040;-66
2023/12/06 02:22:57;;;;;;;11.00;4.40;;;;;;;;;;5048922;28;20037;-66
2023/12/06 02:25:22;;;;;;;16.23;4.60;;;;;;;;;;5050503;28;20248;-66
2023/12/06 02:27:48;;;;;;;49.30;4.82;;;;;;;;;;5050453;28;20049;-66
2023/12/06 02:30:13;;;;;;;19.55;4.30;;;;;;;;;;5050024;28;20586;-66
2023/12/06 02:32:39;;;;;;;8.90;3.70;;;;;;;;;;5050472;28;20037;-67
2023/12/06 02:35:20;;;;;;;8.57;3.53;;;;;;;;;;5048908;28;20060;-66
2023/12/06 02:37:48;;;;;;;8.85;3.40;;;;;;;;;;5048894;28;20033;-66
2023/12/06 02:40:13;;;;;;;7.50;3.03;;;;;;;;;;5050286;28;20041;-66
2023/12/06 02:42:39;;;;;;;11.18;4.35;;;;;;;;;;5050172;28;20025;-66
2023/12/06 02:45:05;;;;;;;7.15;3.67;;;;;;;;;;5050106;28;20044;-65
2023/12/06 02:47:30;;;;;;;13.90;3.83;;;;;;;;;;5049653;28;20041;-66
2023/12/06 02:49:55;;;;;;;53.03;5.00;;;;;;;;;;5049085;28;20080;-65
2023/12/06 02:52:21;;;;;;;14.80;4.03;;;;;;;;;;5048485;28;20071;-66
2023/12/06 02:54:46;;;;;;;17.80;3.67;;;;;;;;;;5050211;28;20033;-66
2023/12/06 02:57:11;;;;;;;13.80;3.75;;;;;;;;;;5050157;28;20040;-66
2023/12/06 02:59:37;;;;;;;10.98;3.72;;;;;;;;;;5049860;28;20041;-66
2023/12/06 03:02:02;;;;;;;13.68;4.22;;;;;;;;;;5049868;28;20033;-66
2023/12/06 03:04:28;;;;;;;16.63;4.45;;;;;;;;;;5050105;28;20033;-65
2023/12/06 03:06:53;;;;;;;11.50;4.47;;;;;;;;;;5049836;28;20401;-66
2023/12/06 03:09:18;;;;;;;9.93;3.92;;;;;;;;;;5050014;28;20040;-66
2023/12/06 03:11:44;;;;;;;9.52;3.55;;;;;;;;;;5050031;28;20484;-66
2023/12/06 03:14:09;;;;;;;21.25;4.75;;;;;;;;;;5049608;28;20389;-66
2023/12/06 03:16:34;;;;;;;32.53;5.10;;;;;;;;;;5049974;28;20378;-67
2023/12/06 03:19:01;;;;;;;15.35;3.53;;;;;;;;;;5049964;28;20108;-66
2023/12/06 03:21:26;;;;;;;7.20;3.30;;;;;;;;;;5047672;28;20097;-66
2023/12/06 03:23:52;;;;;;;65.80;5.40;;;;;;;;;;5047967;28;20548;-65
2023/12/06 03:26:17;;;;;;;18.63;3.75;;;;;;;;;;5049867;28;20441;-66
2023/12/06 03:28:42;;;;;;;36.85;4.78;;;;;;;;;;5049724;28;20036;-67
2023/12/06 03:31:08;;;;;;;11.95;4.57;;;;;;;;;;5050696;28;20526;-66
2023/12/06 03:33:33;;;;;;;18.63;3.50;;;;;;;;;;5051821;28;20033;-67
2023/12/06 03:35:59;;;;;;;31.88;3.85;;;;;;;;;;5053378;28;20033;-67
2023/12/06 03:38:24;;;;;;;17.45;3.95;;;;;;;;;;5053413;28;20037;-66
2023/12/06 03:40:49;;;;;;;16.55;3.92;;;;;;;;;;5053763;28;20114;-66
2023/12/06 03:43:15;;;;;;;10.10;3.80;;;;;;;;;;5053514;28;20037;-66
2023/12/06 03:45:40;;;;;;;19.40;4.20;;;;;;;;;;5053587;28;20041;-66
2023/12/06 03:48:05;;;;;;;14.07;4.13;;;;;;;;;;5050802;28;20071;-66
2023/12/06 03:50:31;;;;;;;12.60;3.50;;;;;;;;;;5053421;28;20033;-66
2023/12/06 03:52:56;;;;;;;12.32;4.07;;;;;;;;;;5053046;28;20037;-66
2023/12/06 03:55:21;;;;;;;10.70;4.13;;;;;;;;;;5052708;28;20033;-66
2023/12/06 03:57:47;;;;;;;9.60;3.45;;;;;;;;;;5052939;28;20108;-67
2023/12/06 04:00:13;;;;;;;9.15;3.60;;;;;;;;;;5051885;28;20039;-66
2023/12/06 04:02:39;;;;;;;13.40;4.20;;;;;;;;;;5053054;28;20380;-66
2023/12/06 04:05:04;;;;;;;11.38;3.97;;;;;;;;;;5053003;28;20121;-66
2023/12/06 04:07:29;;;;;;;12.98;4.55;;;;;;;;;;5052915;28;20025;-66
2023/12/06 04:09:55;;;;;;;28.30;4.28;;;;;;;;;;5052717;28;20461;-66
2023/12/06 04:12:20;;;;;;;10.93;4.00;;;;;;;;;;5052786;28;20361;-65
2023/12/06 04:14:45;;;;;;;16.15;4.03;;;;;;;;;;5052883;28;20484;-66
2023/12/06 04:17:11;;;;;;;10.25;4.03;;;;;;;;;;5052515;28;20473;-66
2023/12/06 04:19:38;;;;;;;14.55;5.13;;;;;;;;;;5052419;28;20033;-66
2023/12/06 04:22:04;;;;;;;9.05;4.00;;;;;;;;;;5052017;28;20508;-66
2023/12/06 04:24:30;;;;;;;13.75;4.15;;;;;;;;;;5052682;28;20112;-66
2023/12/06 04:26:55;;;;;;;14.75;4.97;;;;;;;;;;5052529;28;20467;-66
2023/12/06 04:29:21;;;;;;;8.00;4.35;;;;;;;;;;5051375;28;20045;-65
2023/12/06 04:31:46;;;;;;;11.27;4.43;;;;;;;;;;5052381;28;20053;-66
2023/12/06 04:34:11;;;;;;;11.23;4.38;;;;;;;;;;5052153;28;20032;-65
2023/12/06 04:36:37;;;;;;;7.95;3.78;;;;;;;;;;5052004;28;20037;-66
2023/12/06 04:39:02;;;;;;;7.35;4.05;;;;;;;;;;5052618;28;20179;-66
2023/12/06 04:41:27;;;;;;;12.10;4.38;;;;;;;;;;5051775;28;20035;-66
2023/12/06 04:43:53;;;;;;;12.30;4.03;;;;;;;;;;5052288;28;20128;-67
2023/12/06 04:46:18;;;;;;;16.00;5.18;;;;;;;;;;5052502;28;20033;-66
2023/12/06 04:48:43;;;;;;;10.85;4.00;;;;;;;;;;5052134;28;20441;-65
2023/12/06 04:51:09;;;;;;;11.50;4.30;;;;;;;;;;5052207;28;20043;-66
2023/12/06 04:53:34;;;;;;;9.85;4.30;;;;;;;;;;5052162;28;20033;-66
2023/12/06 04:56:00;;;;;;;10.48;4.28;;;;;;;;;;5051902;28;20602;-66
2023/12/06 04:58:25;;;;;;;16.55;4.63;;;;;;;;;;5052178;28;20488;-66
2023/12/06 05:00:52;;;;;;;16.48;4.50;;;;;;;;;;5051891;28;20033;-67
2023/12/06 05:03:19;;;;;;;9.07;3.90;;;;;;;;;;5052001;28;20033;-65
2023/12/06 05:05:44;;;;;;;12.77;4.15;;;;;;;;;;5051957;28;20037;-66
2023/12/06 05:08:10;;;;;;;10.43;3.55;;;;;;;;;;5051733;28;20118;-67
2023/12/06 05:10:35;;;;;;;16.10;4.72;;;;;;;;;;5051863;28;20033;-66
2023/12/06 05:13:00;;;;;;;12.75;4.15;;;;;;;;;;5050693;28;20045;-66
2023/12/06 05:15:26;;;;;;;16.13;4.32;;;;;;;;;;5051622;28;20029;-66
2023/12/06 05:17:51;;;;;;;10.50;3.88;;;;;;;;;;5051783;28;20033;-66
2023/12/06 05:20:16;;;;;;;9.40;3.78;;;;;;;;;;5051406;28;20033;-66
2023/12/06 05:22:42;;;;;;;10.27;4.40;;;;;;;;;;5051489;28;20033;-66
2023/12/06 05:25:08;;;;;;;9.00;4.25;;;;;;;;;;5049118;28;20227;-66
2023/12/06 05:27:33;;;;;;;7.25;3.75;;;;;;;;;;5051538;28;20080;-65
2023/12/06 05:29:59;;;;;;;9.13;3.70;;;;;;;;;;5051269;28;20029;-66
2023/12/06 05:32:24;;;;;;;6.15;3.08;;;;;;;;;;5051273;28;20059;-66
2023/12/06 05:34:49;;;;;;;8.57;3.38;;;;;;;;;;5049831;28;20037;-66
2023/12/06 05:37:15;;;;;;;10.25;3.63;;;;;;;;;;5049830;28;20033;-67
2023/12/06 05:39:41;;;;;;;6.88;3.38;;;;;;;;;;5051437;28;20039;-66
2023/12/06 05:42:07;;;;;;;7.60;4.00;;;;;;;;;;5051017;28;20033;-66
2023/12/06 05:44:33;;;;;;;10.98;3.60;;;;;;;;;;5049747;28;20112;-66
2023/12/06 05:46:58;;;;;;;10.70;3.28;;;;;;;;;;5051077;28;20052;-66
2023/12/06 05:49:23;;;;;;;7.90;2.97;;;;;;;;;;5051209;28;20099;-65
2023/12/06 05:51:49;;;;;;;8.10;3.47;;;;;;;;;;5050865;28;20053;-66
2023/12/06 05:54:14;;;;;;;7.00;3.10;;;;;;;;;;5050330;28;20037;-66
2023/12/06 05:56:39;;;;;;;7.57;3.65;;;;;;;;;;5050998;28;20037;-67
2023/12/06 05:59:05;;;;;;;8.35;3.35;;;;;;;;;;5049313;28;20033;-65
2023/12/06 06:01:30;;;;;;;9.20;3.63;;;;;;;;;;5050958;28;20037;-66
2023/12/06 06:03:56;;;;;;;5.90;3.38;;;;;;;;;;5050636;28;20041;-66
2023/12/06 06:06:22;;;;;;;11.00;3.88;;;;;;;;;;5048346;28;20550;-66
2023/12/06 06:08:47;;;;;;;8.55;3.25;;;;;;;;;;5049398;28;20036;-66
2023/12/06 06:11:12;;;;;;;8.75;2.97;;;;;;;;;;5050855;28;20516;-66
2023/12/06 06:13:38;;;;;;;8.48;2.70;;;;;;;;;;5049064;28;20037;-66
2023/12/06 06:16:03;;;;;;;4.40;2.70;;;;;;;;;;5049873;28;20035;-65
2023/12/06 06:18:29;;;;;;;6.20;3.25;;;;;;;;;;5050801;28;20060;-66
2023/12/06 06:20:54;;;;;;;8.25;2.90;;;;;;;;;;5050295;28;20149;-66
2023/12/06 06:23:19;;;;;;;7.93;3.13;;;;;;;;;;5050618;28;20108;-66
2023/12/06 06:25:45;;;;;;;7.50;3.00;;;;;;;;;;5050388;28;20114;-66
2023/12/06 06:28:11;;;;;;;8.48;3.33;;;;;;;;;;5048960;28;20021;-66
2023/12/06 06:30:36;;;;;;;9.18;3.55;;;;;;;;;;5050601;28;20124;-65
2023/12/06 06:33:01;;;;;;;7.03;3.28;;;;;;;;;;5050330;28;20037;-66
2023/12/06 06:35:26;;;;;;;5.80;2.80;;;;;;;;;;5049965;28;20029;-66
2023/12/06 06:37:52;;;;;;;9.75;3.03;;;;;;;;;;5050426;28;20405;-66
2023/12/06 06:40:17;;;;;;;12.60;3.13;;;;;;;;;;5050469;28;20492;-66
2023/12/06 06:42:42;;;;;;;13.20;3.67;;;;;;;;;;5049946;28;20361;-66
2023/12/06 06:45:08;;;;;;;5.60;3.13;;;;;;;;;;5050618;28;20045;-67
2023/12/06 06:47:36;;;;;;;7.72;2.88;;;;;;;;;;5050145;28;20041;-66
2023/12/06 06:50:03;;;;;;;14.82;3.53;;;;;;;;;;5050164;28;20377;-66
2023/12/06 06:52:29;;;;;;;10.55;3.20;;;;;;;;;;5048971;28;20082;-66
2023/12/06 06:54:54;;;;;;;5.13;2.65;;;;;;;;;;5050122;28;20040;-66
2023/12/06 06:57:19;;;;;;;8.57;2.85;;;;;;;;;;5049987;28;20025;-65
2023/12/06 06:59:45;;;;;;;5.88;2.80;;;;;;;;;;5050313;28;20044;-66
2023/12/06 07:02:10;;;;;;;6.93;2.85;;;;;;;;;;5050101;28;20412;-66
2023/12/06 07:04:36;;;;;;;4.80;2.92;;;;;;;;;;5050544;28;20487;-66
2023/12/06 07:07:02;;;;;;;6.22;3.10;;;;;;;;;;5054098;28;20029;-66
2023/12/06 07:09:27;;;;;;;4.30;2.72;;;;;;;;;;5054273;28;20044;-66
2023/12/06 07:11:52;;;;;;;8.60;3.33;;;;;;;;;;5051026;28;20041;-66
2023/12/06 07:14:18;;;;;;;5.30;2.78;;;;;;;;;;5054093;28;20021;-67
2023/12/06 07:16:45;;;;;;;6.13;3.08;;;;;;;;;;5053970;28;20409;-66
2023/12/06 07:19:11;;;;;;;9.18;2.85;;;;;;;;;;5053678;28;20033;-66
2023/12/06 07:21:36;;;;;;;10.23;2.92;;;;;;;;;;5054051;28;20106;-65
2023/12/06 07:24:01;;;;;;;5.57;3.05;;;;;;;;;;5054027;28;20033;-65
2023/12/06 07:26:26;;;;;;;11.68;3.90;;;;;;;;;;5053300;28;20108;-67
2023/12/06 07:28:52;;;;;;;15.60;3.47;;;;;;;;;;5053545;28;20060;-66
2023/12/06 07:31:18;;;;;;;11.00;3.28;;;;;;;;;;5053604;28;20053;-66
2023/12/06 07:33:43;;;;;;;9.27;3.22;;;;;;;;;;5053586;28;20033;-66
2023/12/06 07:36:10;;;;;;;6.50;3.35;;;;;;;;;;5053559;28;20032;-67
2023/12/06 07:38:36;;;;;;;4.75;2.75;;;;;;;;;;5053661;28;20052;-66
2023/12/06 07:41:02;;;;;;;8.32;3.08;;;;;;;;;;5053410;28;20025;-65
2023/12/06 07:43:27;;;;;;;7.47;2.83;;;;;;;;;;5053566;28;20033;-66
2023/12/06 07:45:53;;;;;;;7.95;3.08;;;;;;;;;;5051502;28;20036;-66
2023/12/06 07:48:18;;;;;;;10.77;3.25;;;;;;;;;;5053086;28;20033;-67
2023/12/06 07:50:43;;;;;;;6.22;2.95;;;;;;;;;;5053295;28;20033;-66
2023/12/06 07:53:09;;;;;;;5.68;2.85;;;;;;;;;;5053135;28;20124;-66
2023/12/06 07:55:34;;;;;;;6.13;3.15;;;;;;;;;;5053023;28;20391;-66
2023/12/06 07:58:00;;;;;;;10.57;3.00;;;;;;;;;;5051982;28;20029;-66
2023/12/06 08:00:25;;;;;;;11.10;3.38;;;;;;;;;;5053087;28;20405;-66
2023/12/06 08:02:50;;;;;;;7.88;3.15;;;;;;;;;;5052691;28;20029;-66
2023/12/06 08:05:19;;;;;;;9.60;3.05;;;;;;;;;;5053198;28;20078;-66
2023/12/06 08:07:44;;;;;;;7.97;3.80;;;;;;;;;;5053126;28;20033;-66
2023/12/06 08:10:19;;;;;;;4.32;2.75;;;;;;;;;;5051540;28;20048;-66
2023/12/06 08:12:44;;;;;;;10.73;2.92;;;;;;;;;;5052957;28;20036;-66
2023/12/06 08:15:10;;;;;;;8.23;3.15;;;;;;;;;;5052762;28;20033;-65
2023/12/06 08:17:35;;;;;;;9.98;3.00;;;;;;;;;;5051971;28;20135;-66
2023/12/06 08:20:00;;;;;;;9.98;3.22;;;;;;;;;;5052866;28;20116;-66
2023/12/06 08:22:27;;;;;;;7.97;2.92;;;;;;;;;;5051474;28;20094;-66
2023/12/06 08:24:56;;;;;;;8.57;3.30;;;;;;;;;;5051358;28;20116;-67
2023/12/06 08:27:24;;;;;;;11.20;3.25;;;;;;;;;;5051489;28;20438;-66
2023/12/06 08:29:50;;;;;;;6.00;2.45;;;;;;;;;;5051376;28;20094;-66
2023/12/06 08:32:15;;;;;;;8.32;3.15;;;;;;;;;;5050978;28;20049;-66
2023/12/06 08:34:40;;;;;;;13.02;3.70;;;;;;;;;;5052696;28;20033;-66
2023/12/06 08:37:06;;;;;;;9.38;2.78;;;;;;;;;;5051540;28;20230;-66
2023/12/06 08:39:34;;;;;;;15.15;3.53;;;;;;;;;;5052496;28;20091;-65
2023/12/06 08:42:00;;;;;;;8.65;3.25;;;;;;;;;;5051214;28;20033;-65
2023/12/06 08:44:25;;;;;;;10.32;3.30;;;;;;;;;;5052446;28;20497;-65
2023/12/06 08:46:50;;;;;;;12.77;3.65;;;;;;;;;;5047805;28;20021;-67
2023/12/06 08:49:16;;;;;;;6.32;3.15;;;;;;;;;;5052083;28;20037;-67
2023/12/06 08:51:41;;;;;;;10.63;3.50;;;;;;;;;;5052244;28;20111;-66
2023/12/06 08:54:06;;;;;;;10.35;4.20;;;;;;;;;;5051932;28;20029;-65
2023/12/06 08:56:32;;;;;;;14.57;2.92;;;;;;;;;;5052268;28;20031;-66
2023/12/06 08:58:57;;;;;;;11.73;3.45;;;;;;;;;;5051804;28;20048;-66
2023/12/06 09:01:22;;;;;;;11.52;3.60;;;;;;;;;;5051836;28;20033;-66
2023/12/06 09:03:48;;;;;;;7.10;3.00;;;;;;;;;;5052128;28;20453;-66
2023/12/06 09:06:13;;;;;;;11.75;3.95;;;;;;;;;;5051910;28;20048;-67
2023/12/06 09:08:38;;;;;;;12.48;4.55;;;;;;;;;;5051517;28;20040;-66
2023/12/06 09:11:04;;;;;;;10.40;3.92;;;;;;;;;;5052021;28;20078;-66
2023/12/06 09:13:29;;;;;;;7.20;3.75;;;;;;;;;;5051663;28;20045;-66
2023/12/06 09:15:55;;;;;;;7.97;4.07;;;;;;;;;;5051719;28;20051;-66
2023/12/06 09:18:21;;;;;;;10.88;5.72;;;;;;;;;;5051821;28;20056;-66
2023/12/06 09:20:46;;;;;;;12.27;5.15;;;;;;;;;;5051271;28;20045;-66
2023/12/06 09:23:12;;;;;;;15.63;6.45;;;;;;;;;;5051428;28;20033;-67
2023/12/06 09:25:37;;;;;;;13.10;7.53;;;;;;;;;;5051785;28;20040;-66
2023/12/06 09:28:04;;;;;;;28.10;9.27;;;;;;;;;;5049533;28;20048;-67
2023/12/06 09:30:30;;;;;;;19.70;7.35;;;;;;;;;;5051179;28;20045;-66
2023/12/06 09:32:56;;;;;;;15.07;6.53;;;;;;;;;;5046968;28;20048;-66
2023/12/06 09:35:22;;;;;;;21.60;9.20;;;;;;;;;;5050327;28;20041;-66
2023/12/06 09:37:48;;;;;;;8.95;3.60;;;;;;;;;;5051113;28;20035;-67
2023/12/06 09:40:13;;;;;;;11.02;4.75;;;;;;;;;;5051498;28;20039;-66
2023/12/06 09:42:43;;;;;;;18.13;7.72;;;;;;;;;;5051246;28;20384;-66
2023/12/06 09:45:08;;;;;;;15.38;6.10;;;;;;;;;;5049325;28;20043;-65
2023/12/06 09:47:34;;;;;;;21.98;8.15;;;;;;;;;;5049906;28;20107;-66
2023/12/06 09:49:59;;;;;;;15.77;7.53;;;;;;;;;;5049816;28;20621;-66
2023/12/06 09:52:25;;;;;;;12.48;6.78;;;;;;;;;;5051011;28;20377;-66
2023/12/06 09:54:51;;;;;;;15.13;6.97;;;;;;;;;;5049853;28;20040;-66
2023/12/06 09:57:16;;;;;;;19.33;7.43;;;;;;;;;;5049701;28;20593;-66
2023/12/06 09:59:42;;;;;;;14.98;6.90;;;;;;;;;;5050959;28;20037;-66
2023/12/06 10:02:07;;;;;;;18.90;7.20;;;;;;;;;;5047780;28;20072;-67
2023/12/06 10:04:34;;;;;;;17.27;6.88;;;;;;;;;;5050876;28;20463;-66
2023/12/06 10:07:00;;;;;;;16.13;6.45;;;;;;;;;;5050829;28;20044;-67
2023/12/06 10:09:25;;;;;;;10.27;5.63;;;;;;;;;;5049544;28;20070;-66
2023/12/06 10:11:51;;;;;;;15.90;7.47;;;;;;;;;;5050401;28;20044;-67
2023/12/06 10:14:20;;;;;;;12.88;6.57;;;;;;;;;;5050652;28;20043;-66
2023/12/06 10:16:46;;;;;;;15.38;7.30;;;;;;;;;;5049550;28;20033;-67
2023/12/06 10:19:19;;;;;;;16.63;7.03;;;;;;;;;;5050514;28;20432;-66
2023/12/06 10:21:45;;;;;;;17.48;6.70;;;;;;;;;;5050330;28;20586;-66
2023/12/06 10:24:11;;;;;;;13.32;6.72;;;;;;;;;;5049308;28;20118;-66
2023/12/06 10:26:37;;;;;;;16.02;7.28;;;;;;;;;;5050322;28;20068;-66
2023/12/06 10:29:02;;;;;;;20.42;7.95;;;;;;;;;;5049237;28;20065;-66
2023/12/06 10:31:36;;;;;;;14.98;6.93;;;;;;;;;;5050407;28;20053;-66
2023/12/06 10:34:02;;;;;;;18.55;5.93;;;;;;;;;;5048609;28;20496;-66
2023/12/06 10:36:27;;;;;;;14.00;6.68;;;;;;;;;;5049242;28;20116;-66
2023/12/06 10:38:55;;;;;;;18.00;7.10;;;;;;;;;;5050016;28;20045;-66
2023/12/06 10:41:21;;;;;;;12.93;6.70;;;;;;;;;;5050149;28;20044;-66
2023/12/06 10:43:47;;;;;;;14.15;7.20;;;;;;;;;;5049161;28;20025;-66
2023/12/06 10:46:15;;;;;;;20.75;8.00;;;;;;;;;;5050278;28;20045;-66
2023/12/06 10:48:41;;;;;;;19.75;7.75;;;;;;;;;;5041200;28;20041;-67
2023/12/06 10:51:07;;;;;;;15.05;7.65;;;;;;;;;;5048922;28;20103;-66
2023/12/06 10:53:32;;;;;;;18.80;8.10;;;;;;;;;;5048860;28;20036;-66
2023/12/06 10:55:59;;;;;;;23.33;7.90;;;;;;;;;;5050069;28;20392;-66
2023/12/06 10:58:25;;;;;;;15.27;8.40;;;;;;;;;;5050101;28;20092;-67
2023/12/06 11:00:50;;;;;;;17.17;7.72;;;;;;;;;;5046992;28;20116;-66
2023/12/06 11:03:15;;;;;;;16.95;7.72;;;;;;;;;;5049880;28;20047;-67
2023/12/06 11:05:44;;;;;;;16.90;7.00;;;;;;;;;;5049484;28;20068;-66
2023/12/06 11:08:25;;;;;;;17.52;8.52;;;;;;;;;;5048951;28;20045;-66
2023/12/06 11:11:30;;;;;;;18.58;9.15;;;;;;;;;;5049871;28;20448;-67
2023/12/06 11:14:08;;;;;;;17.83;9.45;;;;;;;;;;5039127;28;20040;-66
2023/12/06 11:16:45;;;;;;;22.67;8.95;;;;;;;;;;5050152;28;20041;-66
2023/12/06 11:19:12;;;;;;;18.38;8.07;;;;;;;;;;5041023;28;20048;-66
2023/12/06 11:21:37;;;;;;;24.23;9.13;;;;;;;;;;5049831;28;20374;-66
2023/12/06 11:24:03;;;;;;;18.23;8.10;;;;;;;;;;5048202;28;20095;-66
2023/12/06 11:26:29;;;;;;;18.48;8.50;;;;;;;;;;5049743;28;20033;-66
2023/12/06 11:28:55;;;;;;;15.30;6.03;;;;;;;;;;5048728;28;20080;-66
2023/12/06 11:31:21;;;;;;;18.23;7.70;;;;;;;;;;5048283;28;20072;-66
2023/12/06 11:33:56;;;;;;;17.17;8.65;;;;;;;;;;5049612;28;20072;-66
2023/12/06 11:36:24;;;;;;;21.17;8.27;;;;;;;;;;5049982;28;20037;-66
2023/12/06 11:38:49;;;;;;;24.10;11.93;;;;;;;;;;5049550;28;20033;-67
2023/12/06 11:41:18;;;;;;;21.70;8.65;;;;;;;;;;5049729;28;20048;-66
2023/12/06 11:43:51;;;;;;;19.52;8.95;;;;;;;;;;5049698;28;20406;-66
2023/12/06 11:46:17;;;;;;;12.27;7.53;;;;;;;;;;5047985;28;20047;-66
2023/12/06 11:48:49;;;;;;;22.55;9.40;;;;;;;;;;5049422;28;20032;-67
2023/12/06 11:51:23;;;;;;;20.73;8.93;;;;;;;;;;5049149;28;20036;-66
2023/12/06 11:53:52;;;;;;;22.30;9.05;;;;;;;;;;5042805;28;20378;-66
2023/12/06 11:56:24;;;;;;;18.85;8.05;;;;;;;;;;5052068;28;20056;-66
2023/12/06 11:58:50;;;;;;;21.50;8.25;;;;;;;;;;5052090;28;20067;-67
2023/12/06 12:01:17;;;;;;;18.00;8.48;;;;;;;;;;5052341;28;20041;-66
2023/12/06 12:03:44;;;;;;;16.05;7.35;;;;;;;;;;5051676;28;20465;-66
2023/12/06 12:06:10;;;;;;;19.23;8.20;;;;;;;;;;5051843;28;20354;-66
2023/12/06 12:08:35;;;;;;;19.73;8.13;;;;;;;;;;5052985;28;20044;-67
2023/12/06 12:11:02;;;;;;;17.90;8.88;;;;;;;;;;5051228;28;20464;-66
2023/12/06 12:13:27;;;;;;;17.48;8.52;;;;;;;;;;5034498;28;20041;-66
2023/12/06 12:15:58;;;;;;;22.13;8.00;;;;;;;;;;5052790;28;20452;-66
2023/12/06 12:18:24;;;;;;;17.35;7.43;;;;;;;;;;5049966;28;20025;-67
2023/12/06 12:20:49;;;;;;;17.70;6.97;;;;;;;;;;5051722;28;20528;-67
2023/12/06 12:23:15;;;;;;;12.68;7.05;;;;;;;;;;5047528;28;20037;-66
2023/12/06 12:25:47;;;;;;;13.18;6.75;;;;;;;;;;5052766;28;20025;-66
2023/12/06 12:28:17;;;;;;;14.65;7.00;;;;;;;;;;5052991;28;20049;-66
2023/12/06 12:30:43;;;;;;;15.85;7.38;;;;;;;;;;5052273;28;20052;-67
2023/12/06 12:33:09;;;;;;;13.05;7.13;;;;;;;;;;5052526;28;20128;-67
2023/12/06 12:35:34;;;;;;;14.30;6.38;;;;;;;;;;5052547;28;20106;-66
2023/12/06 12:37:59;;;;;;;13.65;6.60;;;;;;;;;;5052514;28;20576;-67
2023/12/06 12:40:25;;;;;;;19.17;7.85;;;;;;;;;;5048070;28;20040;-66
2023/12/06 12:42:50;;;;;;;14.93;7.75;;;;;;;;;;5051175;28;20055;-66
2023/12/06 12:45:18;;;;;;;12.43;6.93;;;;;;;;;;5051119;28;20063;-66
2023/12/06 12:47:43;;;;;;;11.48;6.43;;;;;;;;;;5051130;28;20045;-66
2023/12/06 12:50:09;;;;;;;11.43;6.82;;;;;;;;;;5051059;28;20047;-66
2023/12/06 12:52:37;;;;;;;14.00;5.65;;;;;;;;;;5049401;28;20037;-66
2023/12/06 12:55:04;;;;;;;11.10;6.25;;;;;;;;;;5050097;28;20500;-65
2023/12/06 12:57:42;;;;;;;12.35;6.65;;;;;;;;;;5043313;28;20040;-66
2023/12/06 13:00:21;;;;;;;13.52;6.47;;;;;;;;;;5041427;28;20033;-66
2023/12/06 13:02:48;;;;;;;10.80;5.00;;;;;;;;;;5050786;28;20029;-67
2023/12/06 13:05:13;;;;;;;10.02;6.57;;;;;;;;;;5048724;28;20067;-66
2023/12/06 13:07:38;;;;;;;13.05;6.90;;;;;;;;;;5054544;28;20056;-66
2023/12/06 13:10:07;;;;;;;11.85;5.28;;;;;;;;;;5049618;28;20029;-66
2023/12/06 13:12:39;;;;;;;12.93;6.80;;;;;;;;;;5048555;28;20048;-68
2023/12/06 13:15:05;;;;;;;13.52;6.35;;;;;;;;;;5047038;28;20082;-66
2023/12/06 13:17:31;;;;;;;10.57;6.57;;;;;;;;;;5045917;28;20037;-65
2023/12/06 13:19:57;;;;;;;11.73;6.90;;;;;;;;;;5048163;28;20036;-66
2023/12/06 13:22:22;;;;;;;8.65;5.18;;;;;;;;;;5047580;28;20033;-66
2023/12/06 13:24:48;;;;;;;14.80;6.55;;;;;;;;;;5050883;28;20066;-66
2023/12/06 13:27:13;;;;;;;9.52;5.45;;;;;;;;;;5048762;28;20029;-66
2023/12/06 13:29:39;;;;;;;14.73;6.40;;;;;;;;;;5050967;28;20045;-67
2023/12/06 13:32:05;;;;;;;9.93;5.93;;;;;;;;;;5037780;28;20049;-66
2023/12/06 13:34:30;;;;;;;12.52;6.82;;;;;;;;;;5050416;28;20487;-66
2023/12/06 13:36:57;;;;;;;13.20;7.97;;;;;;;;;;5049248;28;20032;-67
2023/12/06 13:39:22;;;;;;;11.85;6.28;;;;;;;;;;5050850;28;20041;-67
2023/12/06 13:41:48;;;;;;;11.77;6.25;;;;;;;;;;5023540;28;20029;-68
2023/12/06 13:44:13;;;;;;;11.32;6.90;;;;;;;;;;5039576;28;20044;-67
2023/12/06 13:46:38;;;;;;;12.32;7.35;;;;;;;;;;5049947;28;20092;-66
2023/12/06 13:49:04;;;;;;;13.90;6.72;;;;;;;;;;5049680;28;20036;-66
2023/12/06 13:51:30;;;;;;;8.98;5.63;;;;;;;;;;5040089;28;20379;-66
2023/12/06 13:53:55;;;;;;;10.98;5.80;;;;;;;;;;5031286;28;20521;-65
2023/12/06 13:56:21;;;;;;;12.65;6.72;;;;;;;;;;5048823;28;20045;-66
2023/12/06 13:58:47;;;;;;;18.15;6.97;;;;;;;;;;5048057;28;20045;-66
2023/12/06 14:01:12;;;;;;;13.45;7.03;;;;;;;;;;5044438;28;20087;-67
2023/12/06 14:03:42;;;;;;;9.50;5.63;;;;;;;;;;5029716;28;20798;-66
2023/12/06 14:06:11;;;;;;;12.95;7.28;;;;;;;;;;5047503;28;20033;-66
2023/12/06 14:08:36;;;;;;;16.55;7.50;;;;;;;;;;5046463;28;20040;-66
2023/12/06 14:11:03;;;;;;;13.52;7.82;;;;;;;;;;5040519;28;20047;-66
2023/12/06 14:13:29;;;;;;;14.90;8.65;;;;;;;;;;5045616;28;20167;-66
2023/12/06 14:15:55;;;;;;;11.98;5.60;;;;;;;;;;5047146;28;20782;-67
2023/12/06 14:18:20;;;;;;;16.90;10.85;;;;;;;;;;5047439;28;20037;-66
2023/12/06 14:20:47;;;;;;;10.90;5.70;;;;;;;;;;5047060;28;20040;-66
2023/12/06 14:23:12;;;;;;;11.43;6.35;;;;;;;;;;5046858;28;20094;-66
2023/12/06 14:25:38;;;;;;;7.78;4.72;;;;;;;;;;5045196;28;20029;-66
2023/12/06 14:28:03;;;;;;;15.27;8.35;;;;;;;;;;5045054;28;20045;-66